createdAt,value
2022-08-16T00:01:24.834Z,62.59
2022-08-16T00:03:54.549Z,63.31
2022-08-16T00:06:22.500Z,63.64
2022-08-16T00:08:52.859Z,63.15
2022-08-16T00:11:21.209Z,62.45
2022-08-16T00:13:54.529Z,62.35
2022-08-16T00:17:00.656Z,62.64
2022-08-16T00:19:41.088Z,62.40
2022-08-16T00:22:12.848Z,62.17
2022-08-16T00:24:46.965Z,62.01
2022-08-16T00:27:17.693Z,62.68
2022-08-16T00:29:44.799Z,61.64
2022-08-16T00:32:17.959Z,61.73
2022-08-16T00:34:52.443Z,60.79
2022-08-16T00:37:24.424Z,61.05
2022-08-16T00:39:58.610Z,60.91
2022-08-16T00:42:31.994Z,60.78
2022-08-16T00:45:25.064Z,61.51
2022-08-16T00:47:53.266Z,61.41
2022-08-16T00:50:35.777Z,62.19
2022-08-16T00:53:11.245Z,61.37
2022-08-16T00:55:44.691Z,60.76
2022-08-16T00:58:16.136Z,60.33
2022-08-16T01:00:59.626Z,60.14
2022-08-16T01:03:29.483Z,60.76
2022-08-16T01:05:59.858Z,60.60
2022-08-16T01:08:50.298Z,61.74
2022-08-16T01:11:25.055Z,60.59
2022-08-16T01:14:02.693Z,59.82
2022-08-16T01:16:30.918Z,60.51
2022-08-16T01:19:17.465Z,60.94
2022-08-16T01:22:48.141Z,60.98
2022-08-16T01:25:09.600Z,61.06
2022-08-16T01:27:41.760Z,60.87
2022-08-16T01:30:26.464Z,61.95
2022-08-16T01:33:14.773Z,61.95
2022-08-16T01:35:59.672Z,60.22
2022-08-16T01:38:37.986Z,60.35
2022-08-16T01:41:11.739Z,60.20
2022-08-16T01:43:43.634Z,59.35
2022-08-16T01:46:37.860Z,58.83
2022-08-16T01:49:10.049Z,59.01
2022-08-16T01:51:40.765Z,59.04
2022-08-16T01:54:13.261Z,59.38
2022-08-16T01:59:41.975Z,59.43
2022-08-16T02:02:26.987Z,59.74
2022-08-16T02:04:57.405Z,60.87
2022-08-16T02:07:26.165Z,61.57
2022-08-16T02:09:58.752Z,61.92
2022-08-16T02:12:49.794Z,62.92
2022-08-16T02:15:24.813Z,62.39
2022-08-16T02:17:59.354Z,63.09
2022-08-16T02:20:32.889Z,63.19
2022-08-16T02:23:05.978Z,63.34
2022-08-16T02:25:50.587Z,64.01
2022-08-16T02:28:19.582Z,64.57
2022-08-16T02:30:51.601Z,63.76
2022-08-16T02:33:24.664Z,63.42
2022-08-16T02:36:14.061Z,63.63
2022-08-16T02:41:37.324Z,64.70
2022-08-16T02:44:08.604Z,64.93
2022-08-16T02:46:36.197Z,64.10
2022-08-16T02:49:07.279Z,63.74
2022-08-16T02:51:36.853Z,63.42
2022-08-16T02:54:06.521Z,63.62
2022-08-16T02:56:37.199Z,63.71
2022-08-16T02:59:11.422Z,63.90
2022-08-16T03:01:42.177Z,63.11
2022-08-16T03:07:09.127Z,63.33
2022-08-16T03:09:44.239Z,62.85
2022-08-16T03:12:16.439Z,63.35
2022-08-16T03:14:45.486Z,63.89
2022-08-16T03:17:13.447Z,64.83
2022-08-16T03:19:48.366Z,63.59
2022-08-16T03:22:29.155Z,64.02
2022-08-16T03:25:07.473Z,63.90
2022-08-16T03:27:39.165Z,65.11
2022-08-16T03:30:17.846Z,64.83
2022-08-16T03:33:11.684Z,64.55
2022-08-16T03:35:48.689Z,64.11
2022-08-16T03:38:34.029Z,64.70
2022-08-16T03:41:25.332Z,64.87
2022-08-16T03:43:58.379Z,65.04
2022-08-16T03:46:48.215Z,65.49
2022-08-16T03:49:20.241Z,65.15
2022-08-16T03:51:51.963Z,64.76
2022-08-16T03:54:22.475Z,64.60
2022-08-16T03:56:56.927Z,65.03
2022-08-16T03:59:24.997Z,64.30
2022-08-16T04:01:53.729Z,64.67
2022-08-16T04:04:33.473Z,64.47
2022-08-16T04:07:06.943Z,65.37
2022-08-16T04:09:37.992Z,64.92
2022-08-16T04:12:10.581Z,64.46
2022-08-16T04:14:46.798Z,64.88
2022-08-16T04:17:17.182Z,64.37
2022-08-16T04:19:45.489Z,65.10
2022-08-16T04:22:17.413Z,64.91
2022-08-16T04:24:54.346Z,64.76
2022-08-16T04:27:29.048Z,65.38
2022-08-16T04:30:02.793Z,65.17
2022-08-16T04:32:33.751Z,65.04
2022-08-16T04:35:09.375Z,64.63
2022-08-16T04:37:43.172Z,64.69
2022-08-16T04:40:21.790Z,63.28
2022-08-16T04:42:50.720Z,62.12
2022-08-16T04:45:18.586Z,62.19
2022-08-16T04:48:06.842Z,61.29
2022-08-16T04:50:43.633Z,61.29
2022-08-16T04:53:18.161Z,63.17
2022-08-16T04:55:53.438Z,62.66
2022-08-16T04:58:45.159Z,61.44
2022-08-16T05:01:10.665Z,63.24
2022-08-16T05:03:41.797Z,62.95
2022-08-16T05:06:45.252Z,62.83
2022-08-16T05:09:19.331Z,62.23
2022-08-16T05:11:57.646Z,60.95
2022-08-16T05:14:45.294Z,61.73
2022-08-16T05:17:15.556Z,61.09
2022-08-16T05:19:46.665Z,61.27
2022-08-16T05:22:28.450Z,60.86
2022-08-16T05:24:57.311Z,60.68
2022-08-16T05:27:24.597Z,58.29
2022-08-16T05:29:57.046Z,55.80
2022-08-16T05:35:18.186Z,50.52
2022-08-16T05:37:59.224Z,48.55
2022-08-16T05:40:26.989Z,47.22
2022-08-16T05:42:56.133Z,45.40
2022-08-16T05:45:24.235Z,44.66
2022-08-16T05:48:00.227Z,44.08
2022-08-16T05:50:37.984Z,43.33
2022-08-16T05:53:12.566Z,42.49
2022-08-16T05:55:55.922Z,41.54
2022-08-16T05:58:33.133Z,42.06
2022-08-16T06:01:02.730Z,41.22
2022-08-16T06:03:30.748Z,41.22
2022-08-16T06:06:03.173Z,39.86
2022-08-16T06:08:42.216Z,38.23
2022-08-16T06:11:14.294Z,38.06
2022-08-16T06:13:47.808Z,39.19
2022-08-16T06:16:21.451Z,40.20
2022-08-16T06:18:52.825Z,43.65
2022-08-16T06:21:22.928Z,42.47
2022-08-16T06:23:57.439Z,40.94
2022-08-16T06:26:37.022Z,37.52
2022-08-16T06:29:07.698Z,39.93
2022-08-16T06:31:46.943Z,40.42
2022-08-16T06:34:31.563Z,37.62
2022-08-16T06:37:07.730Z,36.19
2022-08-16T06:39:49.819Z,36.38
2022-08-16T06:42:39.586Z,35.90
2022-08-16T06:45:37.981Z,39.22
2022-08-16T06:48:13.960Z,37.34
2022-08-16T06:50:48.241Z,36.13
2022-08-16T06:53:16.881Z,36.26
2022-08-16T06:56:14.784Z,37.86
2022-08-16T06:59:08.996Z,35.48
2022-08-16T07:01:45.111Z,35.83
2022-08-16T07:04:33.285Z,37.83
2022-08-16T07:07:14.601Z,36.30
2022-08-16T07:09:42.823Z,38.13
2022-08-16T07:12:10.100Z,34.84
2022-08-16T07:14:41.659Z,35.29
2022-08-16T07:17:13.019Z,37.19
2022-08-16T07:20:02.873Z,34.61
2022-08-16T07:22:52.910Z,33.41
2022-08-16T07:25:40.143Z,34.53
2022-08-16T07:28:20.735Z,35.23
2022-08-16T07:30:53.238Z,32.64
2022-08-16T07:33:53.479Z,34.02
2022-08-16T07:36:30.903Z,32.23
2022-08-16T07:38:59.648Z,31.28
2022-08-16T07:41:30.614Z,30.78
2022-08-16T07:44:01.934Z,32.83
2022-08-16T07:46:38.547Z,34.46
2022-08-16T07:49:18.323Z,34.00
2022-08-16T07:51:46.407Z,33.42
2022-08-16T07:54:21.067Z,32.27
2022-08-16T07:59:46.209Z,30.87
2022-08-16T08:02:20.395Z,33.21
2022-08-16T08:04:52.378Z,31.41
2022-08-16T08:07:20.770Z,32.28
2022-08-16T08:09:50.975Z,32.13
2022-08-16T08:12:32.006Z,30.37
2022-08-16T08:15:10.203Z,33.02
2022-08-16T08:18:50.186Z,33.11
2022-08-16T08:20:33.939Z,31.21
2022-08-16T08:23:03.301Z,32.30
2022-08-16T08:25:54.800Z,31.77
2022-08-16T08:28:24.169Z,31.31
2022-08-16T08:31:01.509Z,31.59
2022-08-16T08:33:34.309Z,31.23
2022-08-16T08:36:05.455Z,29.76
2022-08-16T08:38:45.121Z,30.78
2022-08-16T08:41:18.388Z,30.97
2022-08-16T08:49:46.773Z,30.33
2022-08-16T08:52:33.609Z,29.79
2022-08-16T08:55:28.616Z,28.66
2022-08-16T08:57:59.078Z,28.57
2022-08-16T09:00:51.130Z,30.82
2022-08-16T09:03:20.204Z,30.69
2022-08-16T09:05:51.791Z,29.21
2022-08-16T09:08:22.101Z,28.97
2022-08-16T09:11:03.158Z,28.63
2022-08-16T09:13:33.273Z,29.29
2022-08-16T09:16:01.173Z,28.09
2022-08-16T09:18:35.999Z,29.91
2022-08-16T09:21:09.438Z,28.29
2022-08-16T09:23:38.253Z,28.45
2022-08-16T09:26:44.865Z,29.59
2022-08-16T09:29:16.574Z,29.56
2022-08-16T09:31:47.435Z,31.36
2022-08-16T09:34:46.550Z,33.05
2022-08-16T09:37:17.912Z,32.88
2022-08-16T09:39:50.345Z,34.54
2022-08-16T09:42:19.013Z,33.58
2022-08-16T09:45:13.145Z,33.89
2022-08-16T09:47:56.243Z,33.43
2022-08-16T09:50:36.955Z,33.45
2022-08-16T09:53:17.418Z,32.49
2022-08-16T09:55:49.566Z,32.43
2022-08-16T09:58:41.873Z,31.86
2022-08-16T10:01:11.542Z,33.85
2022-08-16T10:04:01.839Z,33.10
2022-08-16T10:06:34.044Z,32.65
2022-08-16T10:09:05.693Z,33.40
2022-08-16T10:11:56.438Z,33.23
2022-08-16T10:14:40.588Z,33.22
2022-08-16T10:17:13.768Z,32.83
2022-08-16T10:19:43.279Z,34.57
2022-08-16T10:22:12.969Z,32.36
2022-08-16T10:24:55.704Z,33.23
2022-08-16T10:27:56.929Z,34.84
2022-08-16T10:30:36.847Z,33.92
2022-08-16T10:33:07.257Z,34.46
2022-08-16T10:35:34.424Z,34.57
2022-08-16T10:38:27.214Z,33.55
2022-08-16T10:40:54.979Z,33.61
2022-08-16T10:43:22.114Z,35.31
2022-08-16T10:45:57.192Z,35.15
2022-08-16T10:48:33.447Z,35.35
2022-08-16T10:51:00.981Z,35.61
2022-08-16T10:53:32.654Z,34.97
2022-08-16T10:56:44.331Z,34.71
2022-08-16T10:59:28.896Z,34.33
2022-08-16T11:02:21.696Z,33.92
2022-08-16T11:13:21.097Z,33.92
2022-08-16T11:15:55.345Z,33.42
2022-08-16T11:18:48.862Z,34.14
2022-08-16T11:21:28.756Z,33.79
2022-08-16T11:29:40.546Z,33.16
2022-08-16T11:32:08.552Z,33.60
2022-08-16T11:35:05.925Z,33.14
2022-08-16T11:38:04.391Z,33.43
2022-08-16T11:40:16.589Z,33.32
2022-08-16T11:42:46.715Z,34.10
2022-08-16T11:45:14.641Z,34.16
2022-08-16T11:47:42.236Z,33.69
2022-08-16T11:50:11.108Z,33.80
2022-08-16T11:52:39.613Z,33.96
2022-08-16T11:55:17.478Z,33.68
2022-08-16T11:57:44.750Z,34.37
2022-08-16T12:00:42.669Z,35.24
2022-08-16T12:03:03.935Z,32.69
2022-08-16T12:05:32.800Z,32.72
2022-08-16T12:08:00.119Z,32.41
2022-08-16T12:10:33.904Z,33.29
2022-08-16T12:13:02.791Z,33.05
2022-08-16T12:15:30.994Z,32.88
2022-08-16T12:17:59.316Z,32.11
2022-08-16T12:20:34.247Z,31.86
2022-08-16T12:23:03.306Z,32.94
2022-08-16T12:25:32.193Z,32.38
2022-08-16T12:28:02.755Z,31.53
2022-08-16T12:30:38.438Z,31.76
2022-08-16T12:33:16.278Z,32.45
2022-08-16T12:35:53.185Z,32.64
2022-08-16T12:38:41.733Z,32.87
2022-08-16T12:41:08.181Z,33.86
2022-08-16T12:43:36.407Z,33.75
2022-08-16T12:46:10.409Z,33.30
2022-08-16T12:48:55.781Z,33.56
2022-08-16T12:51:57.548Z,33.47
2022-08-16T12:54:19.391Z,33.68
2022-08-16T12:56:47.089Z,34.89
2022-08-16T12:59:20.848Z,35.70
2022-08-16T13:01:50.582Z,36.45
2022-08-16T13:04:24.924Z,36.37
2022-08-16T13:06:53.032Z,36.09
2022-08-16T13:09:26.533Z,35.66
2022-08-16T13:12:15.929Z,35.73
2022-08-16T13:14:43.994Z,35.84
2022-08-16T13:17:19.128Z,36.36
2022-08-16T13:20:08.246Z,35.76
2022-08-16T13:22:44.565Z,36.39
2022-08-16T13:25:20.720Z,36.14
2022-08-16T13:28:02.368Z,37.16
2022-08-16T13:33:30.629Z,37.26
2022-08-16T13:36:00.883Z,36.82
2022-08-16T13:38:36.457Z,37.26
2022-08-16T13:41:08.246Z,36.64
2022-08-16T13:43:38.231Z,36.27
2022-08-16T13:46:06.733Z,35.97
2022-08-16T13:48:42.968Z,36.26
2022-08-16T13:51:15.672Z,35.80
2022-08-16T13:53:54.980Z,35.85
2022-08-16T13:56:38.057Z,36.47
2022-08-16T13:59:19.994Z,36.24
2022-08-16T14:01:59.928Z,36.04
2022-08-16T14:04:32.781Z,35.88
2022-08-16T14:07:01.972Z,35.91
2022-08-16T14:09:30.572Z,36.34
2022-08-16T14:12:01.257Z,36.15
2022-08-16T14:14:37.545Z,36.49
2022-08-16T14:17:04.779Z,36.63
2022-08-16T14:19:37.050Z,35.93
2022-08-16T14:22:31.556Z,36.45
2022-08-16T14:25:11.236Z,36.40
2022-08-16T14:27:43.815Z,37.68
2022-08-16T14:30:15.589Z,38.35
2022-08-16T14:32:43.500Z,39.36
2022-08-16T14:35:17.001Z,39.11
2022-08-16T14:37:44.644Z,39.32
2022-08-16T14:40:15.002Z,39.59
2022-08-16T14:42:44.054Z,39.32
2022-08-16T14:45:14.872Z,40.21
2022-08-16T14:47:42.452Z,40.13
2022-08-16T14:50:13.696Z,39.69
2022-08-16T14:52:55.215Z,39.53
2022-08-16T15:01:11.365Z,41.11
2022-08-16T15:03:42.332Z,42.30
2022-08-16T15:06:13.179Z,42.60
2022-08-16T15:08:42.242Z,42.70
2022-08-16T15:11:09.464Z,43.11
2022-08-16T15:13:36.644Z,43.81
2022-08-16T15:16:04.755Z,43.85
2022-08-16T15:18:33.492Z,43.35
2022-08-16T15:21:02.451Z,43.43
2022-08-16T15:23:33.500Z,43.13
2022-08-16T15:26:04.066Z,44.13
2022-08-16T15:28:33.075Z,43.85
2022-08-16T15:31:03.451Z,44.15
2022-08-16T15:33:42.621Z,44.59
2022-08-16T15:36:18.068Z,44.39
2022-08-16T15:39:03.785Z,44.79
2022-08-16T15:41:43.022Z,45.71
2022-08-16T15:44:15.638Z,45.27
2022-08-16T15:46:55.186Z,45.91
2022-08-16T15:49:37.532Z,46.56
2022-08-16T15:52:11.104Z,46.71
2022-08-16T15:54:52.562Z,46.64
2022-08-16T15:57:25.877Z,46.09
2022-08-16T15:59:56.361Z,46.38
2022-08-16T16:02:39.360Z,46.27
2022-08-16T16:05:10.208Z,46.54
2022-08-16T16:07:40.761Z,46.54
2022-08-16T16:13:16.114Z,46.05
2022-08-16T16:15:51.019Z,46.22
2022-08-16T16:18:20.873Z,46.18
2022-08-16T16:20:52.030Z,46.53
2022-08-16T16:23:24.672Z,46.65
2022-08-16T16:25:52.909Z,46.91
2022-08-16T16:28:46.375Z,46.72
2022-08-16T16:31:14.468Z,47.59
2022-08-16T16:33:44.455Z,47.04
2022-08-16T16:36:19.322Z,47.49
2022-08-16T16:38:48.652Z,47.16
2022-08-16T16:41:22.377Z,47.38
2022-08-16T16:43:53.490Z,47.69
2022-08-16T16:46:41.417Z,47.57
2022-08-16T16:49:14.205Z,47.70
2022-08-16T16:51:41.808Z,47.83
2022-08-16T16:54:27.522Z,47.65
2022-08-16T16:56:58.006Z,47.59
2022-08-16T16:59:28.478Z,48.51
2022-08-16T17:02:38.313Z,47.82
2022-08-16T17:04:47.301Z,47.77
2022-08-16T17:07:14.974Z,47.97
2022-08-16T17:09:42.141Z,47.72
2022-08-16T17:12:14.598Z,47.87
2022-08-16T17:14:53.894Z,48.29
2022-08-16T17:17:21.839Z,47.94
2022-08-16T17:19:49.297Z,48.25
2022-08-16T17:22:19.927Z,48.10
2022-08-16T17:24:52.267Z,48.04
2022-08-16T17:27:33.930Z,48.16
2022-08-16T17:30:14.782Z,48.19
2022-08-16T17:32:48.707Z,48.43
2022-08-16T17:35:21.267Z,49.28
2022-08-16T17:37:51.620Z,49.57
2022-08-16T17:40:47.098Z,49.60
2022-08-16T17:43:15.436Z,49.17
2022-08-16T17:45:43.508Z,50.54
2022-08-16T17:48:11.123Z,49.57
2022-08-16T17:50:39.213Z,49.94
2022-08-16T17:53:07.353Z,50.97
2022-08-16T17:55:37.148Z,51.07
2022-08-16T17:58:09.923Z,50.37
2022-08-16T18:00:52.308Z,51.22
2022-08-16T18:04:02.463Z,52.08
2022-08-16T18:06:18.574Z,51.91
2022-08-16T18:08:48.933Z,51.30
2022-08-16T18:11:25.861Z,51.71
2022-08-16T18:13:54.839Z,52.08
2022-08-16T18:16:22.081Z,52.02
2022-08-16T18:18:49.271Z,51.95
2022-08-16T18:21:35.146Z,52.74
2022-08-16T18:24:02.763Z,53.09
2022-08-16T18:26:30.074Z,53.17
2022-08-16T18:28:57.349Z,52.87
2022-08-16T18:31:25.195Z,54.44
2022-08-16T18:33:54.670Z,53.05
2022-08-16T18:36:24.513Z,53.01
2022-08-16T18:38:53.234Z,53.66
2022-08-16T18:41:24.033Z,53.86
2022-08-16T18:44:23.058Z,54.27
2022-08-16T18:46:43.225Z,54.12
2022-08-16T18:49:13.231Z,54.49
2022-08-16T18:51:45.527Z,54.91
2022-08-16T18:54:16.333Z,54.96
2022-08-16T18:56:56.073Z,55.14
2022-08-16T18:59:27.492Z,54.75
2022-08-16T19:01:59.642Z,55.53
2022-08-16T19:04:54.850Z,55.77
2022-08-16T19:07:15.706Z,55.90
2022-08-16T19:09:43.202Z,56.13
2022-08-16T19:12:10.420Z,56.13
2022-08-16T19:14:37.540Z,56.39
2022-08-16T19:17:05.430Z,56.90
2022-08-16T19:19:32.578Z,56.95
2022-08-16T19:21:59.741Z,57.47
2022-08-16T19:24:29.320Z,57.49
2022-08-16T19:26:57.104Z,58.57
2022-08-16T19:29:24.836Z,58.92
2022-08-16T19:31:52.202Z,59.39
2022-08-16T19:34:19.296Z,59.11
2022-08-16T19:36:46.503Z,59.84
2022-08-16T19:39:16.386Z,59.92
2022-08-16T19:41:46.540Z,60.56
2022-08-16T19:44:22.413Z,60.83
2022-08-16T19:46:50.615Z,60.24
2022-08-16T19:49:17.995Z,60.05
2022-08-16T19:51:46.880Z,59.56
2022-08-16T19:54:14.484Z,59.44
2022-08-16T19:56:41.697Z,59.21
2022-08-16T19:59:19.320Z,59.22
2022-08-16T20:01:51.116Z,59.71
2022-08-16T20:04:18.647Z,60.16
2022-08-16T20:06:46.884Z,59.44
2022-08-16T20:09:14.950Z,60.67
2022-08-16T20:11:46.389Z,60.59
2022-08-16T20:14:24.282Z,59.76
2022-08-16T20:16:55.218Z,60.13
2022-08-16T20:19:22.597Z,58.97
2022-08-16T20:21:49.900Z,58.65
2022-08-16T20:24:33.511Z,58.58
2022-08-16T20:27:02.569Z,59.15
2022-08-16T20:29:29.754Z,59.82
2022-08-16T20:31:57.130Z,60.47
2022-08-16T20:34:24.404Z,59.96
2022-08-16T20:36:51.608Z,60.00
2022-08-16T20:39:18.808Z,60.09
2022-08-16T20:41:45.941Z,59.64
2022-08-16T20:44:13.102Z,60.61
2022-08-16T20:46:40.666Z,60.26
2022-08-16T20:49:10.034Z,60.72
2022-08-16T20:51:49.727Z,60.15
2022-08-16T20:54:19.638Z,60.73
2022-08-16T20:56:47.032Z,60.68
2022-08-16T20:59:14.319Z,60.42
2022-08-16T21:01:46.958Z,61.14
2022-08-16T21:04:23.248Z,61.79
2022-08-16T21:06:54.194Z,62.07
2022-08-16T21:09:28.873Z,62.29
2022-08-16T21:11:57.650Z,61.67
2022-08-16T21:14:24.862Z,62.37
2022-08-16T21:16:52.351Z,62.23
2022-08-16T21:19:20.509Z,61.22
2022-08-16T21:21:48.279Z,61.21
2022-08-16T21:24:16.065Z,61.34
2022-08-16T21:26:50.991Z,60.33
2022-08-16T21:29:24.975Z,61.55
2022-08-16T21:31:54.484Z,60.69
2022-08-16T21:34:21.648Z,61.40
2022-08-16T21:36:49.815Z,61.81
2022-08-16T21:39:16.921Z,61.14
2022-08-16T21:41:45.191Z,61.25
2022-08-16T21:44:12.321Z,62.00
2022-08-16T21:46:39.421Z,60.63
2022-08-16T21:49:06.541Z,62.19
2022-08-16T21:51:34.666Z,61.93
2022-08-16T21:54:02.235Z,61.65
2022-08-16T21:56:29.594Z,60.32
2022-08-16T21:58:56.814Z,60.11
2022-08-16T22:01:24.470Z,59.77
2022-08-16T22:04:35.920Z,59.49
2022-08-16T22:06:41.448Z,60.98
2022-08-16T22:09:10.189Z,60.97
2022-08-16T22:11:37.702Z,61.48
2022-08-16T22:14:05.125Z,60.75
2022-08-16T22:16:36.256Z,61.55
2022-08-16T22:19:04.427Z,62.25
2022-08-16T22:21:32.702Z,61.16
2022-08-16T22:24:00.474Z,61.30
2022-08-16T22:26:31.525Z,60.70
2022-08-16T22:29:05.733Z,61.90
2022-08-16T22:31:33.943Z,62.42
2022-08-16T22:34:02.031Z,61.65
2022-08-16T22:36:30.937Z,61.53
2022-08-16T22:38:59.752Z,61.99
2022-08-16T22:41:28.707Z,60.85
2022-08-16T22:46:47.331Z,60.43
2022-08-16T22:49:14.951Z,61.79
2022-08-16T22:51:42.260Z,60.30
2022-08-16T22:54:34.186Z,60.46
2022-08-16T22:56:57.707Z,60.22
2022-08-16T22:59:25.249Z,61.11
2022-08-16T23:01:53.562Z,60.57
2022-08-16T23:04:20.862Z,59.29
2022-08-16T23:06:47.999Z,60.41
2022-08-16T23:09:15.103Z,60.94
2022-08-16T23:11:42.257Z,60.19
2022-08-16T23:14:09.856Z,59.03
2022-08-16T23:16:37.106Z,60.16
2022-08-16T23:19:08.148Z,59.27
2022-08-16T23:21:37.217Z,59.09
2022-08-16T23:24:06.063Z,59.04
2022-08-16T23:26:36.480Z,59.88
2022-08-16T23:29:25.459Z,59.28
2022-08-16T23:31:56.388Z,59.33
2022-08-16T23:34:24.331Z,59.67
2022-08-16T23:36:51.498Z,59.57
2022-08-16T23:39:18.671Z,59.37
2022-08-16T23:41:45.857Z,59.82
2022-08-16T23:44:55.192Z,59.46
2022-08-16T23:47:00.096Z,60.33
2022-08-16T23:50:01.436Z,60.27
2022-08-16T23:52:14.844Z,60.08
2022-08-16T23:54:41.943Z,60.13
2022-08-16T23:57:09.051Z,59.89
2022-08-16T23:59:48.698Z,59.69
